sensor_id;sensor_type;location;lat;lon;timestamp;P1;durP1;ratioP1;P2;durP2;ratioP2
7211;SDS011;3647;48.792;9.802;2022-08-11T04:32:19;12.37;;;4.07;;
7211;SDS011;3647;48.792;9.802;2022-08-11T04:35:01;4.27;;;3.87;;
7211;SDS011;3647;48.792;9.802;2022-08-11T04:37:48;6.13;;;3.90;;
7211;SDS011;3647;48.792;9.802;2022-08-11T04:40:39;6.93;;;5.00;;
7211;SDS011;3647;48.792;9.802;2022-08-11T04:43:38;6.03;;;4.37;;
7211;SDS011;3647;48.792;9.802;2022-08-11T04:50:08;5.28;;;3.92;;
7211;SDS011;3647;48.792;9.802;2022-08-11T04:53:10;5.15;;;3.58;;
7211;SDS011;3647;48.792;9.802;2022-08-11T04:56:04;4.80;;;3.60;;
7211;SDS011;3647;48.792;9.802;2022-08-11T04:59:01;3.65;;;3.33;;
7211;SDS011;3647;48.792;9.802;2022-08-11T05:02:17;5.93;;;3.50;;
7211;SDS011;3647;48.792;9.802;2022-08-11T05:05:17;3.45;;;3.15;;
7211;SDS011;3647;48.792;9.802;2022-08-11T06:59:19;8.88;;;4.20;;
7211;SDS011;3647;48.792;9.802;2022-08-11T07:02:06;7.90;;;4.18;;
7211;SDS011;3647;48.792;9.802;2022-08-11T07:04:39;3.35;;;3.03;;
7211;SDS011;3647;48.792;9.802;2022-08-11T07:10:29;3.78;;;2.95;;
7211;SDS011;3647;48.792;9.802;2022-08-11T07:13:25;6.93;;;3.40;;
7211;SDS011;3647;48.792;9.802;2022-08-11T07:18:40;4.72;;;3.05;;
7211;SDS011;3647;48.792;9.802;2022-08-11T07:21:27;4.90;;;3.00;;
7211;SDS011;3647;48.792;9.802;2022-08-11T07:24:16;2.83;;;2.60;;
7211;SDS011;3647;48.792;9.802;2022-08-11T07:27:03;3.85;;;2.80;;
7211;SDS011;3647;48.792;9.802;2022-08-11T07:29:54;5.63;;;3.10;;
7211;SDS011;3647;48.792;9.802;2022-08-11T07:32:23;6.18;;;3.50;;
7211;SDS011;3647;48.792;9.802;2022-08-11T07:34:57;5.43;;;2.75;;
7211;SDS011;3647;48.792;9.802;2022-08-11T07:37:30;4.28;;;2.95;;
7211;SDS011;3647;48.792;9.802;2022-08-11T07:39:58;3.72;;;2.85;;
7211;SDS011;3647;48.792;9.802;2022-08-11T07:42:27;3.08;;;2.78;;
7211;SDS011;3647;48.792;9.802;2022-08-11T07:44:56;7.57;;;2.85;;
7211;SDS011;3647;48.792;9.802;2022-08-11T07:47:42;4.18;;;2.60;;
7211;SDS011;3647;48.792;9.802;2022-08-11T07:50:29;7.53;;;2.90;;
7211;SDS011;3647;48.792;9.802;2022-08-11T07:53:14;3.55;;;2.60;;
7211;SDS011;3647;48.792;9.802;2022-08-11T07:55:43;7.97;;;2.83;;
7211;SDS011;3647;48.792;9.802;2022-08-11T07:58:10;2.95;;;2.45;;
7211;SDS011;3647;48.792;9.802;2022-08-11T08:00:56;2.83;;;2.53;;
7211;SDS011;3647;48.792;9.802;2022-08-11T08:03:41;3.30;;;2.97;;
7211;SDS011;3647;48.792;9.802;2022-08-11T08:06:28;3.47;;;2.22;;
7211;SDS011;3647;48.792;9.802;2022-08-11T08:09:15;3.50;;;2.40;;
7211;SDS011;3647;48.792;9.802;2022-08-11T08:12:03;3.40;;;2.72;;
7211;SDS011;3647;48.792;9.802;2022-08-11T08:14:48;3.53;;;2.58;;
7211;SDS011;3647;48.792;9.802;2022-08-11T08:17:33;3.17;;;2.45;;
7211;SDS011;3647;48.792;9.802;2022-08-11T08:20:22;3.65;;;2.33;;
7211;SDS011;3647;48.792;9.802;2022-08-11T08:22:54;3.47;;;2.25;;
7211;SDS011;3647;48.792;9.802;2022-08-11T08:25:22;3.70;;;2.47;;
7211;SDS011;3647;48.792;9.802;2022-08-11T08:27:50;4.15;;;2.65;;
7211;SDS011;3647;48.792;9.802;2022-08-11T08:30:20;4.78;;;2.60;;
7211;SDS011;3647;48.792;9.802;2022-08-11T08:33:05;5.63;;;2.40;;
7211;SDS011;3647;48.792;9.802;2022-08-11T08:35:34;4.50;;;2.25;;
7211;SDS011;3647;48.792;9.802;2022-08-11T08:38:03;3.88;;;2.40;;
7211;SDS011;3647;48.792;9.802;2022-08-11T08:40:30;3.53;;;2.35;;
7211;SDS011;3647;48.792;9.802;2022-08-11T08:42:58;3.80;;;2.58;;
7211;SDS011;3647;48.792;9.802;2022-08-11T08:45:28;5.22;;;2.42;;
7211;SDS011;3647;48.792;9.802;2022-08-11T08:48:01;3.33;;;2.17;;
7211;SDS011;3647;48.792;9.802;2022-08-11T08:50:32;5.78;;;2.60;;
7211;SDS011;3647;48.792;9.802;2022-08-11T08:53:21;3.90;;;2.38;;
7211;SDS011;3647;48.792;9.802;2022-08-11T08:55:53;3.65;;;2.15;;
7211;SDS011;3647;48.792;9.802;2022-08-11T08:58:23;4.00;;;2.90;;
7211;SDS011;3647;48.792;9.802;2022-08-11T09:00:52;3.13;;;2.28;;
7211;SDS011;3647;48.792;9.802;2022-08-11T09:03:21;2.38;;;2.17;;
7211;SDS011;3647;48.792;9.802;2022-08-11T09:05:48;2.30;;;2.10;;
7211;SDS011;3647;48.792;9.802;2022-08-11T09:08:21;4.13;;;2.67;;
7211;SDS011;3647;48.792;9.802;2022-08-11T09:10:49;4.15;;;2.25;;
7211;SDS011;3647;48.792;9.802;2022-08-11T09:13:36;2.88;;;2.47;;
7211;SDS011;3647;48.792;9.802;2022-08-11T09:16:08;3.05;;;2.42;;
7211;SDS011;3647;48.792;9.802;2022-08-11T09:18:36;2.53;;;2.25;;
7211;SDS011;3647;48.792;9.802;2022-08-11T09:21:05;3.13;;;2.60;;
7211;SDS011;3647;48.792;9.802;2022-08-11T09:23:33;2.85;;;2.08;;
7211;SDS011;3647;48.792;9.802;2022-08-11T09:26:18;5.55;;;2.50;;
7211;SDS011;3647;48.792;9.802;2022-08-11T09:29:04;4.10;;;2.42;;
7211;SDS011;3647;48.792;9.802;2022-08-11T09:31:33;5.85;;;2.60;;
7211;SDS011;3647;48.792;9.802;2022-08-11T09:34:00;3.35;;;2.10;;
7211;SDS011;3647;48.792;9.802;2022-08-11T09:36:28;4.65;;;2.20;;
7211;SDS011;3647;48.792;9.802;2022-08-11T09:39:14;3.22;;;2.20;;
7211;SDS011;3647;48.792;9.802;2022-08-11T09:42:00;2.55;;;1.70;;
7211;SDS011;3647;48.792;9.802;2022-08-11T09:44:29;2.65;;;1.77;;
7211;SDS011;3647;48.792;9.802;2022-08-11T09:47:17;3.42;;;2.03;;
7211;SDS011;3647;48.792;9.802;2022-08-11T09:49:48;5.18;;;1.88;;
7211;SDS011;3647;48.792;9.802;2022-08-11T09:52:17;2.22;;;2.03;;
7211;SDS011;3647;48.792;9.802;2022-08-11T09:54:47;2.45;;;1.50;;
7211;SDS011;3647;48.792;9.802;2022-08-11T09:57:17;4.25;;;1.70;;
7211;SDS011;3647;48.792;9.802;2022-08-11T10:00:04;2.10;;;1.90;;
7211;SDS011;3647;48.792;9.802;2022-08-11T10:02:32;2.20;;;2.00;;
7211;SDS011;3647;48.792;9.802;2022-08-11T10:05:04;3.25;;;2.22;;
7211;SDS011;3647;48.792;9.802;2022-08-11T10:07:46;3.25;;;1.90;;
7211;SDS011;3647;48.792;9.802;2022-08-11T10:10:18;3.83;;;1.90;;
7211;SDS011;3647;48.792;9.802;2022-08-11T10:12:47;2.88;;;1.80;;
7211;SDS011;3647;48.792;9.802;2022-08-11T10:15:16;2.25;;;2.05;;
7211;SDS011;3647;48.792;9.802;2022-08-11T10:18:01;2.95;;;2.33;;
7211;SDS011;3647;48.792;9.802;2022-08-11T10:20:50;3.75;;;2.30;;
7211;SDS011;3647;48.792;9.802;2022-08-11T10:23:19;2.20;;;2.00;;
7211;SDS011;3647;48.792;9.802;2022-08-11T10:26:06;3.10;;;2.10;;
7211;SDS011;3647;48.792;9.802;2022-08-11T10:28:51;4.68;;;1.75;;
7211;SDS011;3647;48.792;9.802;2022-08-11T10:31:19;3.42;;;1.92;;
7211;SDS011;3647;48.792;9.802;2022-08-11T10:34:06;3.65;;;1.90;;
7211;SDS011;3647;48.792;9.802;2022-08-11T10:36:34;4.15;;;1.67;;
7211;SDS011;3647;48.792;9.802;2022-08-11T10:39:07;3.72;;;1.70;;
7211;SDS011;3647;48.792;9.802;2022-08-11T10:41:37;2.25;;;1.73;;
7211;SDS011;3647;48.792;9.802;2022-08-11T10:44:22;2.03;;;1.65;;
7211;SDS011;3647;48.792;9.802;2022-08-11T10:46:50;1.80;;;1.70;;
7211;SDS011;3647;48.792;9.802;2022-08-11T10:49:35;1.90;;;1.80;;
7211;SDS011;3647;48.792;9.802;2022-08-11T10:52:03;2.63;;;1.80;;
7211;SDS011;3647;48.792;9.802;2022-08-11T10:54:47;3.22;;;1.98;;
7211;SDS011;3647;48.792;9.802;2022-08-11T10:57:33;1.70;;;1.60;;
7211;SDS011;3647;48.792;9.802;2022-08-11T11:00:18;1.90;;;1.70;;
7211;SDS011;3647;48.792;9.802;2022-08-11T11:02:45;3.10;;;2.17;;
7211;SDS011;3647;48.792;9.802;2022-08-11T11:05:14;3.33;;;1.88;;
7211;SDS011;3647;48.792;9.802;2022-08-11T11:07:49;1.80;;;1.70;;
7211;SDS011;3647;48.792;9.802;2022-08-11T11:10:20;1.88;;;1.70;;
7211;SDS011;3647;48.792;9.802;2022-08-11T11:12:52;2.17;;;1.95;;
7211;SDS011;3647;48.792;9.802;2022-08-11T11:15:40;2.35;;;1.70;;
7211;SDS011;3647;48.792;9.802;2022-08-11T11:18:28;3.08;;;1.70;;
7211;SDS011;3647;48.792;9.802;2022-08-11T11:21:02;3.75;;;2.05;;
7211;SDS011;3647;48.792;9.802;2022-08-11T11:23:32;2.25;;;2.00;;
7211;SDS011;3647;48.792;9.802;2022-08-11T11:26:07;2.08;;;1.50;;
7211;SDS011;3647;48.792;9.802;2022-08-11T11:29:13;1.80;;;1.67;;
7211;SDS011;3647;48.792;9.802;2022-08-11T11:32:13;15.43;;;2.40;;
7211;SDS011;3647;48.792;9.802;2022-08-11T11:34:54;2.50;;;1.90;;
7211;SDS011;3647;48.792;9.802;2022-08-11T11:37:31;2.15;;;1.55;;
7211;SDS011;3647;48.792;9.802;2022-08-11T11:40:00;1.50;;;1.40;;
7211;SDS011;3647;48.792;9.802;2022-08-11T11:42:34;2.00;;;1.67;;
7211;SDS011;3647;48.792;9.802;2022-08-11T11:45:02;4.85;;;1.65;;
7211;SDS011;3647;48.792;9.802;2022-08-11T11:47:30;1.67;;;1.58;;
7211;SDS011;3647;48.792;9.802;2022-08-11T11:49:59;3.45;;;1.75;;
7211;SDS011;3647;48.792;9.802;2022-08-11T11:52:27;2.38;;;1.70;;
7211;SDS011;3647;48.792;9.802;2022-08-11T11:54:54;2.28;;;1.60;;
7211;SDS011;3647;48.792;9.802;2022-08-11T11:57:24;3.05;;;1.70;;
7211;SDS011;3647;48.792;9.802;2022-08-11T12:00:11;3.33;;;1.98;;
7211;SDS011;3647;48.792;9.802;2022-08-11T12:02:57;1.95;;;1.75;;
7211;SDS011;3647;48.792;9.802;2022-08-11T12:05:25;6.00;;;1.50;;
7211;SDS011;3647;48.792;9.802;2022-08-11T12:07:53;2.33;;;1.80;;
7211;SDS011;3647;48.792;9.802;2022-08-11T12:10:42;4.85;;;1.65;;
7211;SDS011;3647;48.792;9.802;2022-08-11T12:13:11;2.35;;;1.83;;
7211;SDS011;3647;48.792;9.802;2022-08-11T12:15:58;2.33;;;2.08;;
7211;SDS011;3647;48.792;9.802;2022-08-11T12:18:28;2.70;;;1.75;;
7211;SDS011;3647;48.792;9.802;2022-08-11T12:20:57;1.60;;;1.50;;
7211;SDS011;3647;48.792;9.802;2022-08-11T12:23:25;1.80;;;1.70;;
7211;SDS011;3647;48.792;9.802;2022-08-11T12:26:13;4.43;;;1.60;;
7211;SDS011;3647;48.792;9.802;2022-08-11T12:28:59;3.38;;;1.80;;
7211;SDS011;3647;48.792;9.802;2022-08-11T12:31:28;4.40;;;1.50;;
7211;SDS011;3647;48.792;9.802;2022-08-11T12:33:59;2.97;;;1.40;;
7211;SDS011;3647;48.792;9.802;2022-08-11T12:36:28;4.50;;;1.70;;
7211;SDS011;3647;48.792;9.802;2022-08-11T12:38:59;5.88;;;1.67;;
7211;SDS011;3647;48.792;9.802;2022-08-11T12:41:27;1.70;;;1.60;;
7211;SDS011;3647;48.792;9.802;2022-08-11T12:44:13;2.15;;;1.95;;
7211;SDS011;3647;48.792;9.802;2022-08-11T12:47:02;1.60;;;1.45;;
7211;SDS011;3647;48.792;9.802;2022-08-11T12:49:30;4.32;;;1.67;;
7211;SDS011;3647;48.792;9.802;2022-08-11T12:52:20;2.63;;;1.80;;
7211;SDS011;3647;48.792;9.802;2022-08-11T12:54:53;3.28;;;1.75;;
7211;SDS011;3647;48.792;9.802;2022-08-11T12:57:31;4.35;;;1.90;;
7211;SDS011;3647;48.792;9.802;2022-08-11T13:00:18;4.43;;;1.67;;
7211;SDS011;3647;48.792;9.802;2022-08-11T13:03:06;2.03;;;1.83;;
7211;SDS011;3647;48.792;9.802;2022-08-11T13:05:53;1.42;;;1.33;;
7211;SDS011;3647;48.792;9.802;2022-08-11T13:08:23;2.53;;;1.63;;
7211;SDS011;3647;48.792;9.802;2022-08-11T13:10:53;1.52;;;1.40;;
7211;SDS011;3647;48.792;9.802;2022-08-11T13:13:39;2.75;;;1.80;;
7211;SDS011;3647;48.792;9.802;2022-08-11T13:16:08;2.38;;;1.75;;
7211;SDS011;3647;48.792;9.802;2022-08-11T13:18:37;1.88;;;1.50;;
7211;SDS011;3647;48.792;9.802;2022-08-11T13:21:07;4.53;;;1.52;;
7211;SDS011;3647;48.792;9.802;2022-08-11T13:23:35;3.45;;;1.77;;
7211;SDS011;3647;48.792;9.802;2022-08-11T13:26:04;6.40;;;1.80;;
7211;SDS011;3647;48.792;9.802;2022-08-11T13:28:32;1.52;;;1.40;;
7211;SDS011;3647;48.792;9.802;2022-08-11T13:31:00;1.73;;;1.63;;
7211;SDS011;3647;48.792;9.802;2022-08-11T13:33:41;3.50;;;1.65;;
7211;SDS011;3647;48.792;9.802;2022-08-11T13:36:09;1.63;;;1.52;;
7211;SDS011;3647;48.792;9.802;2022-08-11T13:38:39;2.00;;;1.67;;
7211;SDS011;3647;48.792;9.802;2022-08-11T13:41:08;2.17;;;1.38;;
7211;SDS011;3647;48.792;9.802;2022-08-11T13:43:49;2.72;;;1.80;;
7211;SDS011;3647;48.792;9.802;2022-08-11T13:46:17;1.77;;;1.67;;
7211;SDS011;3647;48.792;9.802;2022-08-11T13:48:49;1.95;;;1.48;;
7211;SDS011;3647;48.792;9.802;2022-08-11T13:51:17;2.03;;;1.65;;
7211;SDS011;3647;48.792;9.802;2022-08-11T13:54:02;2.80;;;1.70;;
7211;SDS011;3647;48.792;9.802;2022-08-11T13:56:30;1.73;;;1.50;;
7211;SDS011;3647;48.792;9.802;2022-08-11T13:58:58;2.42;;;1.50;;
7211;SDS011;3647;48.792;9.802;2022-08-11T14:01:28;2.63;;;1.50;;
7211;SDS011;3647;48.792;9.802;2022-08-11T14:04:02;2.63;;;1.98;;
7211;SDS011;3647;48.792;9.802;2022-08-11T14:06:32;2.25;;;1.77;;
7211;SDS011;3647;48.792;9.802;2022-08-11T14:09:02;2.88;;;1.52;;
7211;SDS011;3647;48.792;9.802;2022-08-11T14:11:33;1.65;;;1.55;;
7211;SDS011;3647;48.792;9.802;2022-08-11T14:14:25;2.72;;;1.73;;
7211;SDS011;3647;48.792;9.802;2022-08-11T14:17:00;2.50;;;1.70;;
7211;SDS011;3647;48.792;9.802;2022-08-11T14:19:35;1.88;;;1.50;;
7211;SDS011;3647;48.792;9.802;2022-08-11T14:22:06;2.58;;;1.90;;
7211;SDS011;3647;48.792;9.802;2022-08-11T14:24:33;4.43;;;1.85;;
7211;SDS011;3647;48.792;9.802;2022-08-11T14:27:02;2.58;;;1.70;;
7211;SDS011;3647;48.792;9.802;2022-08-11T14:29:30;2.65;;;1.65;;
7211;SDS011;3647;48.792;9.802;2022-08-11T14:32:03;2.22;;;1.60;;
7211;SDS011;3647;48.792;9.802;2022-08-11T14:34:31;2.10;;;1.90;;
7211;SDS011;3647;48.792;9.802;2022-08-11T14:37:03;4.10;;;1.58;;
7211;SDS011;3647;48.792;9.802;2022-08-11T14:39:33;1.73;;;1.55;;
7211;SDS011;3647;48.792;9.802;2022-08-11T14:42:03;1.92;;;1.73;;
7211;SDS011;3647;48.792;9.802;2022-08-11T14:44:50;2.05;;;1.85;;
7211;SDS011;3647;48.792;9.802;2022-08-11T14:47:38;2.53;;;1.67;;
7211;SDS011;3647;48.792;9.802;2022-08-11T14:50:10;1.65;;;1.40;;
7211;SDS011;3647;48.792;9.802;2022-08-11T14:52:49;1.95;;;1.63;;
7211;SDS011;3647;48.792;9.802;2022-08-11T14:55:19;1.67;;;1.58;;
7211;SDS011;3647;48.792;9.802;2022-08-11T14:58:06;2.15;;;1.80;;
7211;SDS011;3647;48.792;9.802;2022-08-11T15:00:34;2.58;;;1.70;;
7211;SDS011;3647;48.792;9.802;2022-08-11T15:03:03;3.47;;;1.50;;
7211;SDS011;3647;48.792;9.802;2022-08-11T15:05:35;4.00;;;1.77;;
7211;SDS011;3647;48.792;9.802;2022-08-11T15:08:08;1.77;;;1.67;;
7211;SDS011;3647;48.792;9.802;2022-08-11T15:10:38;4.05;;;2.03;;
7211;SDS011;3647;48.792;9.802;2022-08-11T15:13:05;3.67;;;2.10;;
7211;SDS011;3647;48.792;9.802;2022-08-11T15:15:35;2.20;;;1.50;;
7211;SDS011;3647;48.792;9.802;2022-08-11T15:18:20;3.17;;;1.75;;
7211;SDS011;3647;48.792;9.802;2022-08-11T15:20:49;2.33;;;1.60;;
7211;SDS011;3647;48.792;9.802;2022-08-11T15:23:35;1.90;;;1.50;;
7211;SDS011;3647;48.792;9.802;2022-08-11T15:26:22;2.45;;;1.83;;
7211;SDS011;3647;48.792;9.802;2022-08-11T15:29:09;3.70;;;1.80;;
7211;SDS011;3647;48.792;9.802;2022-08-11T15:31:57;2.25;;;1.70;;
7211;SDS011;3647;48.792;9.802;2022-08-11T15:34:42;1.55;;;1.45;;
7211;SDS011;3647;48.792;9.802;2022-08-11T15:37:27;2.95;;;1.90;;
7211;SDS011;3647;48.792;9.802;2022-08-11T15:40:02;2.38;;;1.90;;
7211;SDS011;3647;48.792;9.802;2022-08-11T15:42:54;2.38;;;1.90;;
7211;SDS011;3647;48.792;9.802;2022-08-11T15:45:42;3.17;;;1.80;;
7211;SDS011;3647;48.792;9.802;2022-08-11T15:48:16;2.90;;;1.85;;
7211;SDS011;3647;48.792;9.802;2022-08-11T15:50:47;2.95;;;1.67;;
7211;SDS011;3647;48.792;9.802;2022-08-11T15:53:23;3.58;;;1.92;;
7211;SDS011;3647;48.792;9.802;2022-08-11T15:55:58;2.58;;;1.70;;
7211;SDS011;3647;48.792;9.802;2022-08-11T15:58:29;3.95;;;1.90;;
7211;SDS011;3647;48.792;9.802;2022-08-11T16:01:17;4.05;;;2.72;;
7211;SDS011;3647;48.792;9.802;2022-08-11T16:04:05;2.00;;;1.83;;
7211;SDS011;3647;48.792;9.802;2022-08-11T16:06:39;6.15;;;1.90;;
7211;SDS011;3647;48.792;9.802;2022-08-11T16:09:12;2.17;;;1.45;;
7211;SDS011;3647;48.792;9.802;2022-08-11T16:11:41;3.08;;;1.80;;
7211;SDS011;3647;48.792;9.802;2022-08-11T16:14:11;2.00;;;1.77;;
7211;SDS011;3647;48.792;9.802;2022-08-11T16:16:58;1.85;;;1.50;;
7211;SDS011;3647;48.792;9.802;2022-08-11T16:19:26;1.63;;;1.52;;
7211;SDS011;3647;48.792;9.802;2022-08-11T16:22:00;2.35;;;1.65;;
7211;SDS011;3647;48.792;9.802;2022-08-11T16:24:31;1.80;;;1.70;;
7211;SDS011;3647;48.792;9.802;2022-08-11T16:27:04;2.25;;;1.38;;
7211;SDS011;3647;48.792;9.802;2022-08-11T16:29:36;1.85;;;1.75;;
7211;SDS011;3647;48.792;9.802;2022-08-11T16:32:07;4.97;;;1.80;;
7211;SDS011;3647;48.792;9.802;2022-08-11T16:34:45;3.17;;;1.90;;
7211;SDS011;3647;48.792;9.802;2022-08-11T16:37:33;3.42;;;1.70;;
7211;SDS011;3647;48.792;9.802;2022-08-11T16:40:19;1.65;;;1.38;;
7211;SDS011;3647;48.792;9.802;2022-08-11T16:42:49;3.65;;;1.75;;
7211;SDS011;3647;48.792;9.802;2022-08-11T16:45:35;1.85;;;1.75;;
7211;SDS011;3647;48.792;9.802;2022-08-11T16:48:20;2.40;;;1.60;;
7211;SDS011;3647;48.792;9.802;2022-08-11T16:50:51;3.38;;;2.03;;
7211;SDS011;3647;48.792;9.802;2022-08-11T16:53:18;2.63;;;1.75;;
7211;SDS011;3647;48.792;9.802;2022-08-11T16:55:48;2.60;;;1.63;;
7211;SDS011;3647;48.792;9.802;2022-08-11T16:58:17;3.33;;;1.90;;
7211;SDS011;3647;48.792;9.802;2022-08-11T17:01:04;3.67;;;1.77;;
7211;SDS011;3647;48.792;9.802;2022-08-11T17:03:32;2.83;;;1.75;;
7211;SDS011;3647;48.792;9.802;2022-08-11T17:06:17;5.15;;;1.90;;
7211;SDS011;3647;48.792;9.802;2022-08-11T17:09:04;1.83;;;1.55;;
7211;SDS011;3647;48.792;9.802;2022-08-11T17:11:51;2.55;;;1.75;;
7211;SDS011;3647;48.792;9.802;2022-08-11T17:14:42;4.47;;;1.50;;
7211;SDS011;3647;48.792;9.802;2022-08-11T17:17:13;2.97;;;1.70;;
7211;SDS011;3647;48.792;9.802;2022-08-11T17:19:43;2.10;;;1.80;;
7211;SDS011;3647;48.792;9.802;2022-08-11T17:22:14;2.10;;;1.70;;
7211;SDS011;3647;48.792;9.802;2022-08-11T17:24:56;4.30;;;1.83;;
7211;SDS011;3647;48.792;9.802;2022-08-11T17:27:25;1.70;;;1.60;;
7211;SDS011;3647;48.792;9.802;2022-08-11T17:29:57;3.30;;;1.88;;
7211;SDS011;3647;48.792;9.802;2022-08-11T17:32:29;5.45;;;1.65;;
7211;SDS011;3647;48.792;9.802;2022-08-11T17:35:17;2.80;;;2.00;;
7211;SDS011;3647;48.792;9.802;2022-08-11T17:37:55;2.20;;;2.00;;
7211;SDS011;3647;48.792;9.802;2022-08-11T17:40:25;2.03;;;1.35;;
7211;SDS011;3647;48.792;9.802;2022-08-11T17:42:53;4.03;;;1.77;;
7211;SDS011;3647;48.792;9.802;2022-08-11T17:45:41;3.38;;;1.65;;
7211;SDS011;3647;48.792;9.802;2022-08-11T17:48:27;1.85;;;1.55;;
7211;SDS011;3647;48.792;9.802;2022-08-11T17:50:56;4.43;;;1.73;;
7211;SDS011;3647;48.792;9.802;2022-08-11T17:53:25;4.45;;;2.03;;
7211;SDS011;3647;48.792;9.802;2022-08-11T17:56:12;2.95;;;1.70;;
7211;SDS011;3647;48.792;9.802;2022-08-11T17:58:58;5.32;;;1.70;;
7211;SDS011;3647;48.792;9.802;2022-08-11T18:01:46;2.28;;;1.77;;
7211;SDS011;3647;48.792;9.802;2022-08-11T18:04:14;3.72;;;2.03;;
7211;SDS011;3647;48.792;9.802;2022-08-11T18:06:41;2.35;;;1.75;;
7211;SDS011;3647;48.792;9.802;2022-08-11T18:09:11;1.90;;;1.50;;
7211;SDS011;3647;48.792;9.802;2022-08-11T18:11:57;2.05;;;1.85;;
7211;SDS011;3647;48.792;9.802;2022-08-11T18:14:44;1.92;;;1.73;;
7211;SDS011;3647;48.792;9.802;2022-08-11T18:17:32;2.63;;;2.00;;
7211;SDS011;3647;48.792;9.802;2022-08-11T18:20:18;3.63;;;1.80;;
7211;SDS011;3647;48.792;9.802;2022-08-11T18:23:06;2.30;;;1.55;;
7211;SDS011;3647;48.792;9.802;2022-08-11T18:25:54;2.25;;;1.90;;
7211;SDS011;3647;48.792;9.802;2022-08-11T18:28:43;3.60;;;1.80;;
7211;SDS011;3647;48.792;9.802;2022-08-11T18:31:29;2.42;;;2.00;;
7211;SDS011;3647;48.792;9.802;2022-08-11T18:34:19;3.65;;;1.70;;
7211;SDS011;3647;48.792;9.802;2022-08-11T18:37:10;3.67;;;2.33;;
7211;SDS011;3647;48.792;9.802;2022-08-11T18:39:59;6.80;;;1.80;;
7211;SDS011;3647;48.792;9.802;2022-08-11T18:42:46;2.60;;;1.70;;
7211;SDS011;3647;48.792;9.802;2022-08-11T18:45:31;4.05;;;2.00;;
7211;SDS011;3647;48.792;9.802;2022-08-11T18:48:20;3.40;;;1.90;;
7211;SDS011;3647;48.792;9.802;2022-08-11T18:51:08;3.22;;;1.80;;
7211;SDS011;3647;48.792;9.802;2022-08-11T18:53:55;3.63;;;2.20;;
7211;SDS011;3647;48.792;9.802;2022-08-11T18:56:42;2.22;;;2.03;;
7211;SDS011;3647;48.792;9.802;2022-08-11T18:59:30;3.85;;;2.05;;
7211;SDS011;3647;48.792;9.802;2022-08-11T19:02:18;5.65;;;2.30;;
7211;SDS011;3647;48.792;9.802;2022-08-11T19:05:05;4.70;;;2.20;;
7211;SDS011;3647;48.792;9.802;2022-08-11T19:07:52;2.97;;;2.45;;
7211;SDS011;3647;48.792;9.802;2022-08-11T19:10:40;2.67;;;1.92;;
7211;SDS011;3647;48.792;9.802;2022-08-11T19:13:26;4.30;;;1.90;;
7211;SDS011;3647;48.792;9.802;2022-08-11T19:16:12;2.20;;;2.00;;
7211;SDS011;3647;48.792;9.802;2022-08-11T19:18:58;2.50;;;2.25;;
7211;SDS011;3647;48.792;9.802;2022-08-11T19:21:43;5.47;;;2.60;;
7211;SDS011;3647;48.792;9.802;2022-08-11T19:24:29;3.92;;;2.72;;
7211;SDS011;3647;48.792;9.802;2022-08-11T19:27:16;3.88;;;2.33;;
7211;SDS011;3647;48.792;9.802;2022-08-11T19:30:02;6.45;;;2.60;;
7211;SDS011;3647;48.792;9.802;2022-08-11T19:32:47;4.07;;;2.45;;
7211;SDS011;3647;48.792;9.802;2022-08-11T19:35:32;2.33;;;2.13;;
7211;SDS011;3647;48.792;9.802;2022-08-11T19:38:17;9.93;;;2.60;;
7211;SDS011;3647;48.792;9.802;2022-08-11T19:41:03;4.93;;;2.50;;
7211;SDS011;3647;48.792;9.802;2022-08-11T19:43:49;5.35;;;2.30;;
7211;SDS011;3647;48.792;9.802;2022-08-11T19:46:35;2.75;;;2.50;;
7211;SDS011;3647;48.792;9.802;2022-08-11T19:49:20;3.33;;;2.42;;
7211;SDS011;3647;48.792;9.802;2022-08-11T19:52:06;3.05;;;2.30;;
7211;SDS011;3647;48.792;9.802;2022-08-11T19:54:50;3.00;;;2.40;;
7211;SDS011;3647;48.792;9.802;2022-08-11T19:57:37;3.65;;;2.10;;
7211;SDS011;3647;48.792;9.802;2022-08-11T20:00:22;3.30;;;2.17;;
7211;SDS011;3647;48.792;9.802;2022-08-11T20:03:07;5.88;;;2.45;;
7211;SDS011;3647;48.792;9.802;2022-08-11T20:05:55;2.50;;;2.30;;
7211;SDS011;3647;48.792;9.802;2022-08-11T20:08:43;3.00;;;2.15;;
7211;SDS011;3647;48.792;9.802;2022-08-11T20:11:30;6.72;;;2.40;;
7211;SDS011;3647;48.792;9.802;2022-08-11T20:14:17;2.72;;;2.53;;
7211;SDS011;3647;48.792;9.802;2022-08-11T20:17:03;2.88;;;2.42;;
7211;SDS011;3647;48.792;9.802;2022-08-11T20:19:49;3.05;;;2.35;;
7211;SDS011;3647;48.792;9.802;2022-08-11T20:22:34;6.40;;;2.97;;
7211;SDS011;3647;48.792;9.802;2022-08-11T20:25:19;3.03;;;2.70;;
7211;SDS011;3647;48.792;9.802;2022-08-11T20:28:05;5.05;;;3.08;;
7211;SDS011;3647;48.792;9.802;2022-08-11T20:30:52;3.83;;;3.05;;
7211;SDS011;3647;48.792;9.802;2022-08-11T20:33:37;3.80;;;2.58;;
7211;SDS011;3647;48.792;9.802;2022-08-11T20:36:24;6.68;;;3.78;;
7211;SDS011;3647;48.792;9.802;2022-08-11T20:39:10;4.53;;;3.08;;
7211;SDS011;3647;48.792;9.802;2022-08-11T20:41:56;4.03;;;2.88;;
7211;SDS011;3647;48.792;9.802;2022-08-11T20:44:42;3.75;;;2.70;;
7211;SDS011;3647;48.792;9.802;2022-08-11T20:47:28;4.18;;;3.08;;
7211;SDS011;3647;48.792;9.802;2022-08-11T20:50:14;5.78;;;3.17;;
7211;SDS011;3647;48.792;9.802;2022-08-11T20:52:59;2.78;;;2.58;;
7211;SDS011;3647;48.792;9.802;2022-08-11T20:55:44;3.60;;;3.30;;
7211;SDS011;3647;48.792;9.802;2022-08-11T20:58:29;3.00;;;2.70;;
7211;SDS011;3647;48.792;9.802;2022-08-11T21:01:15;5.93;;;3.08;;
7211;SDS011;3647;48.792;9.802;2022-08-11T21:04:03;3.22;;;2.92;;
7211;SDS011;3647;48.792;9.802;2022-08-11T21:06:47;5.28;;;2.40;;
7211;SDS011;3647;48.792;9.802;2022-08-11T21:09:33;5.00;;;2.83;;
7211;SDS011;3647;48.792;9.802;2022-08-11T21:12:18;2.97;;;2.53;;
